Kezdőlap
METAR-TAF:

METAR-TAF

Repülőterek :

Tindouf, Algéria

földrajzi szélesség: 27-40N, földrajzi hosszúság: 008-08W, magasság: 431 m

Jelenlegi meteorológiai megfigyelések

A jelentés 16 perccel ezelõtt készült, 01:00 UTC
Nyugat-északnyugati szél 10 kt
Hőmérséklet 23°C
Páratartalom 50%
Légköri nyomás 1011 hPa
Látótávolság 10 km, vagy több
felhőtlen 1500 m magasságban, és nincs gomolyfelhõ

METAR: DAOF 270100Z 29010KT CAVOK 23/12 Q1011

Idő: 02:16 (01:16 UTC)

Előrejelzés

A jelentés 2 órával és 16 perccel ezelõtt készült, 23:00 UTC
Az előrejelzés 27-én 00 óra UTC és 27-én 09 óra UTC között érvényes
Nyugat-északnyugati szél 16 kt
Látótávolság 10 km, vagy több
felhőtlen 1500 m magasságban, és nincs gomolyfelhõ

TAF: DAOF 262300Z 2700/2709 30016KT CAVOK

Meteorológiai megfigyelések és előrejelzések több, mint 4000 repülőtéren (METAR és TAF jelentéseket).

A térképen piros és sárga pontok jelzik az elérhető meteorológiai állomásokat.

Mozgassa az egeret a pont fölött, hogy megjelenjen az állomás neve.

Azután kattintson az időjárási megfigyelések és előrejelzések megtekintéséhez.

A térkép megváltoztatása: kattintson a fekete keresztel jelölt zöld gombra ráközelítéshez, a vonallal jelölt zöld gombra távolításhoz, vagy a zöld nyilakra a szomszédos térképek eléréséhez.


METAR-TAF: